Charlestown, NH (03603)

10:54 AM EDT on May 29, 2015 (GMT -0400)
Beaudry Development | | Change Station
CLOSE
Current Station
Personal Weather Station
Location: Charlestown, NH
Elevation: 600 ft
Nearby Weather Stations

Elev 600 ft 43.26 °N, 72.40 °W | Updated 4 seconds ago

Clear
Clear
71.4 °F
Feels Like 75 °F
N
6.0
Wind Variable Wind from WSW
Gusts 8.0 mph

Today
High -- | Low -- °F
--% Chance of Precip.
Yesterday
High -- | Low -- °F
Precip. -- in
5:14 AM 8:20 PM
Waxing Gibbous, 84% visible
Pressure 30.32 in
Visibility 10.0 miles
Clouds Clear
Heat Index 75 °F
Dew Point 59 °F
Humidity 64%
Rainfall 0.00 in
Snow Depth Not available.
UV 7 out of 12
Pollen 9.90 out of 12
Air Quality Not available.
Flu Activity Sporadic
METAR KVSF 291354Z AUTO 04005KT 10SM CLR 21/12 A3032 RMK AO2 SLP267 T02110117 TSNO

More Conditions Fewer Conditions

Pressure 30.32 in
Visibility 10.0 miles
Clouds Clear
Heat Index 75 °F
Dew Point 59 °F
Humidity 64%
Rainfall 0.00 in
Snow Depth Not available.
UV 7 out of 12
Pollen 9.90 out of 12
Air Quality Not available.
Flu Activity Sporadic
METAR KVSF 291354Z AUTO 04005KT 10SM CLR 21/12 A3032 RMK AO2 SLP267 T02110117 TSNO

More Conditions Fewer Conditions

10-Day Weather Forecast

Almanac

Astronomy

May. 29, 2015 Rise Set
Actual Time
Civil Twilight
Nautical Twilight
Astronomical Twilight
Moon
Length of Visible Light
Length of Day
Tomorrow will be .
, % of the Moon is Illuminated

Today's Extremes

State Highs State Lows

Community

WunderPhotos

Upload Photos

1,825,288 photos uploaded!

WunderBlogs® & News

Nearby

Air Quality

  Air Quality AQ Index Pollutant
Not available.

Snow Depth

Station Depth Elevation

Earthquake Activity

City Distance Mag. Time & Date
Minimum magnitude displayed is 2.5.

Coastal Water Temperatures

Place Temperature

Stations

Nearby Weather Stations

Station Location Temp. Windchill Dew Point Humidity Wind Precip. Elev Updated Type